Decoded Metar for FMEE (ST.-DENIS in REUNION ISLAND) (IATA:RUN) | Meteo·Mobile Aviation Weather
aviador You're here:

FMEE Decoded Metar

ST.-DENIS in REUNION ISLAND
Report Time2020-02-23 09:30:00
UTC Time2020-02-23 09:45:22
Flight Rules vfr VFR
Wind060° at 06 kt
W.Decomp.*RWY 12: 4.5 kt HW 4 kt LCW
RWY 14: 2.8 kt HW 5.3 kt LCW
Visibility9999 m
Phenomena:N/A
Clouds:N/A
Expected CloudBase > 3,200 ft AGL from Temp-Dew spread
CeilingNone
Temp30°C (ISA +15)
Dew Point22°C (62% RH)
Heat Index33.2°C
QNH1011 hPa
Density Alt2,234 ft
Elevation82 ft
Report Wrong Elevation
Raw Report
FMEE 230930Z AUTO 06006KT CAVOK 30/22 Q1011 NOSIG=

Extra information for FMEE:More info

Metar Taf Metar & Taf Last 4 Metars F.Rules Stats Wind Profile Meteogram Temp Stats Airport Information Weather charts Add Link Nearby VenuesMetar ALERT Operation Metar Decoded Social comments